sensor_id;sensor_type;location;lat;lon;timestamp;temperature;humidity
318;DHT22;146;53.448;10.228;2022-12-13T00:00:28;-4.00;1.00
318;DHT22;146;53.448;10.228;2022-12-13T00:02:58;-3.90;1.00
318;DHT22;146;53.448;10.228;2022-12-13T00:05:25;-3.90;1.00
318;DHT22;146;53.448;10.228;2022-12-13T00:07:52;-4.00;1.00
318;DHT22;146;53.448;10.228;2022-12-13T00:10:20;-4.00;1.00
318;DHT22;146;53.448;10.228;2022-12-13T00:12:47;-3.90;1.00
318;DHT22;146;53.448;10.228;2022-12-13T00:15:14;-3.90;1.00
318;DHT22;146;53.448;10.228;2022-12-13T00:17:41;-4.00;1.00
318;DHT22;146;53.448;10.228;2022-12-13T00:20:10;-4.00;1.00
318;DHT22;146;53.448;10.228;2022-12-13T00:22:37;-4.10;1.00
318;DHT22;146;53.448;10.228;2022-12-13T00:25:04;-4.10;1.00
318;DHT22;146;53.448;10.228;2022-12-13T00:27:33;-4.20;1.00
318;DHT22;146;53.448;10.228;2022-12-13T00:30:00;-4.20;1.00
318;DHT22;146;53.448;10.228;2022-12-13T00:32:27;-4.30;1.00
318;DHT22;146;53.448;10.228;2022-12-13T00:34:55;-4.30;1.00
318;DHT22;146;53.448;10.228;2022-12-13T00:37:22;-4.30;1.00
318;DHT22;146;53.448;10.228;2022-12-13T00:39:51;-4.30;1.00
318;DHT22;146;53.448;10.228;2022-12-13T00:42:18;-4.30;1.00
318;DHT22;146;53.448;10.228;2022-12-13T00:44:46;-4.30;1.00
318;DHT22;146;53.448;10.228;2022-12-13T00:47:13;-4.40;1.00
318;DHT22;146;53.448;10.228;2022-12-13T00:49:45;-4.40;1.00
318;DHT22;146;53.448;10.228;2022-12-13T00:52:12;-4.40;1.00
318;DHT22;146;53.448;10.228;2022-12-13T00:54:39;-4.40;1.00
318;DHT22;146;53.448;10.228;2022-12-13T00:57:06;-4.40;1.00
318;DHT22;146;53.448;10.228;2022-12-13T00:59:33;-4.40;1.00
318;DHT22;146;53.448;10.228;2022-12-13T01:02:02;-4.40;1.00
318;DHT22;146;53.448;10.228;2022-12-13T01:04:29;-4.40;1.00
318;DHT22;146;53.448;10.228;2022-12-13T01:06:56;-4.40;1.00
318;DHT22;146;53.448;10.228;2022-12-13T01:09:26;-4.40;1.00
318;DHT22;146;53.448;10.228;2022-12-13T01:11:56;-4.40;1.00
318;DHT22;146;53.448;10.228;2022-12-13T01:14:24;-4.40;1.00
318;DHT22;146;53.448;10.228;2022-12-13T01:16:51;-4.30;1.00
318;DHT22;146;53.448;10.228;2022-12-13T01:19:23;-4.30;1.00
318;DHT22;146;53.448;10.228;2022-12-13T01:21:53;-4.30;1.00
318;DHT22;146;53.448;10.228;2022-12-13T01:24:21;-4.40;1.00
318;DHT22;146;53.448;10.228;2022-12-13T01:26:49;-4.40;1.00
318;DHT22;146;53.448;10.228;2022-12-13T01:29:17;-4.30;1.00
318;DHT22;146;53.448;10.228;2022-12-13T01:31:44;-4.40;1.00
318;DHT22;146;53.448;10.228;2022-12-13T01:34:13;-4.30;1.00
318;DHT22;146;53.448;10.228;2022-12-13T01:36:43;-4.30;1.00
318;DHT22;146;53.448;10.228;2022-12-13T01:39:12;-4.20;1.00
318;DHT22;146;53.448;10.228;2022-12-13T01:41:39;-4.20;1.00
318;DHT22;146;53.448;10.228;2022-12-13T01:47:16;-4.10;1.00
318;DHT22;146;53.448;10.228;2022-12-13T01:49:46;-4.20;1.00
318;DHT22;146;53.448;10.228;2022-12-13T01:52:16;-4.20;1.00
318;DHT22;146;53.448;10.228;2022-12-13T01:54:45;-4.20;1.00
318;DHT22;146;53.448;10.228;2022-12-13T01:57:16;-4.20;1.00
318;DHT22;146;53.448;10.228;2022-12-13T01:59:45;-4.20;1.00
318;DHT22;146;53.448;10.228;2022-12-13T02:02:16;-4.20;1.00
318;DHT22;146;53.448;10.228;2022-12-13T02:04:48;-4.20;1.00
318;DHT22;146;53.448;10.228;2022-12-13T02:07:21;-4.20;1.00
318;DHT22;146;53.448;10.228;2022-12-13T02:09:50;-4.20;1.00
318;DHT22;146;53.448;10.228;2022-12-13T02:12:18;-4.20;1.00
318;DHT22;146;53.448;10.228;2022-12-13T02:14:45;-4.20;1.00
318;DHT22;146;53.448;10.228;2022-12-13T02:17:21;-4.20;1.00
318;DHT22;146;53.448;10.228;2022-12-13T02:23:11;-4.30;1.00
318;DHT22;146;53.448;10.228;2022-12-13T02:26:16;-4.30;1.00
318;DHT22;146;53.448;10.228;2022-12-13T02:28:59;-4.30;1.00
318;DHT22;146;53.448;10.228;2022-12-13T02:31:39;-4.40;1.00
318;DHT22;146;53.448;10.228;2022-12-13T02:34:11;-4.30;1.00
318;DHT22;146;53.448;10.228;2022-12-13T02:36:45;-4.30;1.00
318;DHT22;146;53.448;10.228;2022-12-13T02:39:19;-4.30;1.00
318;DHT22;146;53.448;10.228;2022-12-13T02:41:48;-4.40;1.00
318;DHT22;146;53.448;10.228;2022-12-13T02:44:18;-4.50;1.00
318;DHT22;146;53.448;10.228;2022-12-13T02:46:50;-4.50;1.00
318;DHT22;146;53.448;10.228;2022-12-13T02:49:20;-4.50;1.00
318;DHT22;146;53.448;10.228;2022-12-13T02:51:52;-4.50;1.00
318;DHT22;146;53.448;10.228;2022-12-13T02:54:20;-4.50;1.00
318;DHT22;146;53.448;10.228;2022-12-13T02:56:53;-4.60;1.00
318;DHT22;146;53.448;10.228;2022-12-13T02:59:21;-4.50;1.00
318;DHT22;146;53.448;10.228;2022-12-13T03:01:58;-4.50;1.00
318;DHT22;146;53.448;10.228;2022-12-13T03:04:39;-4.50;1.00
318;DHT22;146;53.448;10.228;2022-12-13T03:07:37;-4.60;1.00
318;DHT22;146;53.448;10.228;2022-12-13T03:10:08;-4.60;1.00
318;DHT22;146;53.448;10.228;2022-12-13T03:12:43;-4.70;1.00
318;DHT22;146;53.448;10.228;2022-12-13T03:15:33;-4.70;1.00
318;DHT22;146;53.448;10.228;2022-12-13T03:18:07;-4.60;1.00
318;DHT22;146;53.448;10.228;2022-12-13T03:20:44;-4.60;1.00
318;DHT22;146;53.448;10.228;2022-12-13T03:23:13;-4.60;1.00
318;DHT22;146;53.448;10.228;2022-12-13T03:25:40;-4.60;1.00
318;DHT22;146;53.448;10.228;2022-12-13T03:28:07;-4.60;1.00
318;DHT22;146;53.448;10.228;2022-12-13T03:30:35;-4.60;1.00
318;DHT22;146;53.448;10.228;2022-12-13T03:33:02;-4.60;1.00
318;DHT22;146;53.448;10.228;2022-12-13T03:35:31;-4.60;1.00
318;DHT22;146;53.448;10.228;2022-12-13T03:37:58;-4.70;1.00
318;DHT22;146;53.448;10.228;2022-12-13T03:40:27;-4.60;1.00
318;DHT22;146;53.448;10.228;2022-12-13T03:42:54;-4.70;1.00
318;DHT22;146;53.448;10.228;2022-12-13T03:45:22;-4.60;1.00
318;DHT22;146;53.448;10.228;2022-12-13T03:47:49;-4.60;1.00
318;DHT22;146;53.448;10.228;2022-12-13T03:50:16;-4.60;1.00
318;DHT22;146;53.448;10.228;2022-12-13T03:52:45;-4.60;1.00
318;DHT22;146;53.448;10.228;2022-12-13T03:55:12;-4.50;1.00
318;DHT22;146;53.448;10.228;2022-12-13T03:57:39;-4.60;1.00
318;DHT22;146;53.448;10.228;2022-12-13T04:00:07;-4.60;1.00
318;DHT22;146;53.448;10.228;2022-12-13T04:02:35;-4.60;1.00
318;DHT22;146;53.448;10.228;2022-12-13T04:05:02;-4.60;1.00
318;DHT22;146;53.448;10.228;2022-12-13T04:07:29;-4.60;1.00
318;DHT22;146;53.448;10.228;2022-12-13T04:09:58;-4.60;1.00
318;DHT22;146;53.448;10.228;2022-12-13T04:12:25;-4.50;1.00
318;DHT22;146;53.448;10.228;2022-12-13T04:15:09;-4.50;1.00
318;DHT22;146;53.448;10.228;2022-12-13T04:17:37;-4.50;1.00
318;DHT22;146;53.448;10.228;2022-12-13T05:33:42;-3.80;1.00
318;DHT22;146;53.448;10.228;2022-12-13T05:36:09;-3.70;1.00
318;DHT22;146;53.448;10.228;2022-12-13T05:38:36;-3.70;1.00
318;DHT22;146;53.448;10.228;2022-12-13T05:41:03;-3.60;1.00
318;DHT22;146;53.448;10.228;2022-12-13T05:43:31;-3.60;1.00
318;DHT22;146;53.448;10.228;2022-12-13T05:46:01;-3.70;1.00
318;DHT22;146;53.448;10.228;2022-12-13T05:48:28;-3.60;1.00
318;DHT22;146;53.448;10.228;2022-12-13T05:50:56;-3.50;1.00
318;DHT22;146;53.448;10.228;2022-12-13T05:53:23;-3.50;1.00
318;DHT22;146;53.448;10.228;2022-12-13T05:55:50;-3.40;1.00
318;DHT22;146;53.448;10.228;2022-12-13T05:58:18;-3.40;1.00
318;DHT22;146;53.448;10.228;2022-12-13T06:00:45;-3.30;1.00
318;DHT22;146;53.448;10.228;2022-12-13T06:03:12;-3.30;1.00
318;DHT22;146;53.448;10.228;2022-12-13T06:05:39;-3.20;1.00
318;DHT22;146;53.448;10.228;2022-12-13T06:08:10;-3.10;1.00
318;DHT22;146;53.448;10.228;2022-12-13T06:10:37;-3.10;1.00
318;DHT22;146;53.448;10.228;2022-12-13T06:13:04;-3.10;1.00
318;DHT22;146;53.448;10.228;2022-12-13T06:15:32;-3.00;1.00
318;DHT22;146;53.448;10.228;2022-12-13T06:17:59;-3.00;1.00
318;DHT22;146;53.448;10.228;2022-12-13T06:20:26;-3.10;1.00
318;DHT22;146;53.448;10.228;2022-12-13T06:22:53;-3.20;1.00
318;DHT22;146;53.448;10.228;2022-12-13T06:25:21;-3.20;1.00
318;DHT22;146;53.448;10.228;2022-12-13T06:27:48;-3.20;1.00
318;DHT22;146;53.448;10.228;2022-12-13T06:30:15;-3.20;1.00
318;DHT22;146;53.448;10.228;2022-12-13T06:32:42;-3.30;1.00
318;DHT22;146;53.448;10.228;2022-12-13T06:35:13;-3.30;1.00
318;DHT22;146;53.448;10.228;2022-12-13T06:37:40;-3.20;1.00
318;DHT22;146;53.448;10.228;2022-12-13T06:40:08;-3.10;1.00
318;DHT22;146;53.448;10.228;2022-12-13T06:42:37;-3.10;1.00
318;DHT22;146;53.448;10.228;2022-12-13T06:45:05;-3.00;1.00
318;DHT22;146;53.448;10.228;2022-12-13T06:47:32;-2.90;1.00
318;DHT22;146;53.448;10.228;2022-12-13T06:50:02;-2.90;1.00
318;DHT22;146;53.448;10.228;2022-12-13T06:52:29;-2.90;1.00
318;DHT22;146;53.448;10.228;2022-12-13T06:54:57;-2.90;1.00
318;DHT22;146;53.448;10.228;2022-12-13T06:57:57;-2.90;1.00
318;DHT22;146;53.448;10.228;2022-12-13T07:00:24;-2.90;1.00
318;DHT22;146;53.448;10.228;2022-12-13T07:02:52;-3.10;1.00
318;DHT22;146;53.448;10.228;2022-12-13T07:05:43;-3.10;1.00
318;DHT22;146;53.448;10.228;2022-12-13T07:08:13;-3.20;1.00
318;DHT22;146;53.448;10.228;2022-12-13T07:10:57;-3.20;1.00
318;DHT22;146;53.448;10.228;2022-12-13T07:13:46;-3.20;1.00
318;DHT22;146;53.448;10.228;2022-12-13T07:16:23;-3.20;1.00
318;DHT22;146;53.448;10.228;2022-12-13T07:18:54;-3.20;1.00
318;DHT22;146;53.448;10.228;2022-12-13T07:21:23;-3.20;1.00
318;DHT22;146;53.448;10.228;2022-12-13T07:23:50;-3.20;1.00
318;DHT22;146;53.448;10.228;2022-12-13T07:26:18;-3.20;1.00
318;DHT22;146;53.448;10.228;2022-12-13T07:28:47;-3.20;1.00
318;DHT22;146;53.448;10.228;2022-12-13T07:31:16;-3.20;1.00
318;DHT22;146;53.448;10.228;2022-12-13T07:33:43;-3.20;1.00
318;DHT22;146;53.448;10.228;2022-12-13T07:36:11;-3.20;1.00
318;DHT22;146;53.448;10.228;2022-12-13T07:38:39;-3.20;1.00
318;DHT22;146;53.448;10.228;2022-12-13T07:41:06;-3.20;1.00
318;DHT22;146;53.448;10.228;2022-12-13T07:43:34;-3.20;1.00
318;DHT22;146;53.448;10.228;2022-12-13T07:46:04;-3.10;1.00
318;DHT22;146;53.448;10.228;2022-12-13T07:48:31;-3.10;1.00
318;DHT22;146;53.448;10.228;2022-12-13T07:51:00;-3.10;1.00
318;DHT22;146;53.448;10.228;2022-12-13T07:53:28;-3.10;1.00
318;DHT22;146;53.448;10.228;2022-12-13T07:55:55;-3.10;1.00
318;DHT22;146;53.448;10.228;2022-12-13T07:58:22;-3.20;1.00
318;DHT22;146;53.448;10.228;2022-12-13T08:00:48;-3.30;1.00
318;DHT22;146;53.448;10.228;2022-12-13T08:03:16;-3.30;1.00
318;DHT22;146;53.448;10.228;2022-12-13T08:05:43;-3.30;1.00
318;DHT22;146;53.448;10.228;2022-12-13T08:08:10;-3.40;1.00
318;DHT22;146;53.448;10.228;2022-12-13T08:10:37;-3.50;1.00
318;DHT22;146;53.448;10.228;2022-12-13T08:13:04;-3.50;1.00
318;DHT22;146;53.448;10.228;2022-12-13T08:15:31;-3.50;1.00
318;DHT22;146;53.448;10.228;2022-12-13T08:17:58;-3.70;1.00
318;DHT22;146;53.448;10.228;2022-12-13T08:20:27;-3.60;1.00
318;DHT22;146;53.448;10.228;2022-12-13T08:22:54;-3.60;1.00
318;DHT22;146;53.448;10.228;2022-12-13T08:25:22;-3.60;1.00
318;DHT22;146;53.448;10.228;2022-12-13T08:27:48;-3.50;1.00
318;DHT22;146;53.448;10.228;2022-12-13T08:30:16;-3.30;1.00
318;DHT22;146;53.448;10.228;2022-12-13T08:32:42;-3.30;1.00
318;DHT22;146;53.448;10.228;2022-12-13T08:35:10;-3.20;1.00
318;DHT22;146;53.448;10.228;2022-12-13T08:37:38;-3.10;1.00
318;DHT22;146;53.448;10.228;2022-12-13T08:40:06;-3.20;1.00
318;DHT22;146;53.448;10.228;2022-12-13T08:42:33;-3.10;1.00
318;DHT22;146;53.448;10.228;2022-12-13T08:45:00;-3.00;1.00
318;DHT22;146;53.448;10.228;2022-12-13T08:47:26;-3.00;1.00
318;DHT22;146;53.448;10.228;2022-12-13T08:49:54;-2.90;1.00
318;DHT22;146;53.448;10.228;2022-12-13T08:52:23;-2.80;1.00
318;DHT22;146;53.448;10.228;2022-12-13T08:54:51;-2.70;1.00
318;DHT22;146;53.448;10.228;2022-12-13T08:57:18;-2.60;1.00
318;DHT22;146;53.448;10.228;2022-12-13T08:59:45;-2.60;1.00
318;DHT22;146;53.448;10.228;2022-12-13T09:02:13;-2.60;1.00
318;DHT22;146;53.448;10.228;2022-12-13T09:04:40;-2.60;1.00
318;DHT22;146;53.448;10.228;2022-12-13T09:07:07;-2.50;1.00
318;DHT22;146;53.448;10.228;2022-12-13T09:09:34;-2.60;1.00
318;DHT22;146;53.448;10.228;2022-12-13T09:12:02;-2.70;1.00
318;DHT22;146;53.448;10.228;2022-12-13T09:14:29;-2.60;1.00
318;DHT22;146;53.448;10.228;2022-12-13T09:16:56;-2.50;1.00
318;DHT22;146;53.448;10.228;2022-12-13T09:19:23;-2.40;1.00
318;DHT22;146;53.448;10.228;2022-12-13T09:21:51;-2.40;1.00
318;DHT22;146;53.448;10.228;2022-12-13T09:24:17;-2.30;1.00
318;DHT22;146;53.448;10.228;2022-12-13T09:26:45;-2.30;1.00
318;DHT22;146;53.448;10.228;2022-12-13T09:29:13;-2.40;1.00
318;DHT22;146;53.448;10.228;2022-12-13T09:31:41;-2.40;1.00
318;DHT22;146;53.448;10.228;2022-12-13T09:34:08;-2.40;1.00
318;DHT22;146;53.448;10.228;2022-12-13T09:36:35;-2.40;1.00
318;DHT22;146;53.448;10.228;2022-12-13T09:39:02;-2.30;1.00
318;DHT22;146;53.448;10.228;2022-12-13T09:41:31;-2.30;1.00
318;DHT22;146;53.448;10.228;2022-12-13T09:44:02;-2.30;1.00
318;DHT22;146;53.448;10.228;2022-12-13T09:46:33;-2.30;1.00
318;DHT22;146;53.448;10.228;2022-12-13T09:49:02;-2.20;1.00
318;DHT22;146;53.448;10.228;2022-12-13T09:51:31;-2.10;1.00
318;DHT22;146;53.448;10.228;2022-12-13T09:53:59;-2.10;1.00
318;DHT22;146;53.448;10.228;2022-12-13T09:56:27;-2.00;1.00
318;DHT22;146;53.448;10.228;2022-12-13T09:58:54;-2.00;1.00
318;DHT22;146;53.448;10.228;2022-12-13T10:01:22;-1.90;1.00
318;DHT22;146;53.448;10.228;2022-12-13T10:03:53;-1.90;1.00
318;DHT22;146;53.448;10.228;2022-12-13T10:06:22;-1.80;1.00
318;DHT22;146;53.448;10.228;2022-12-13T10:08:55;-1.80;1.00
318;DHT22;146;53.448;10.228;2022-12-13T10:11:22;-1.80;1.00
318;DHT22;146;53.448;10.228;2022-12-13T10:13:53;-1.80;1.00
318;DHT22;146;53.448;10.228;2022-12-13T10:16:26;-1.80;1.00
318;DHT22;146;53.448;10.228;2022-12-13T10:18:55;-1.90;1.00
318;DHT22;146;53.448;10.228;2022-12-13T10:21:25;-1.80;1.00
318;DHT22;146;53.448;10.228;2022-12-13T10:23:53;-1.70;1.00
318;DHT22;146;53.448;10.228;2022-12-13T10:26:21;-1.60;1.00
318;DHT22;146;53.448;10.228;2022-12-13T10:28:48;-1.50;1.00
318;DHT22;146;53.448;10.228;2022-12-13T10:31:17;-1.40;1.00
318;DHT22;146;53.448;10.228;2022-12-13T10:33:52;-1.30;1.00
318;DHT22;146;53.448;10.228;2022-12-13T10:36:32;-1.40;1.00
318;DHT22;146;53.448;10.228;2022-12-13T10:39:01;-1.30;1.00
318;DHT22;146;53.448;10.228;2022-12-13T10:41:34;-1.20;1.00
318;DHT22;146;53.448;10.228;2022-12-13T10:44:16;-1.10;1.00
318;DHT22;146;53.448;10.228;2022-12-13T10:46:51;-1.00;1.00
318;DHT22;146;53.448;10.228;2022-12-13T10:49:32;-0.90;1.00
318;DHT22;146;53.448;10.228;2022-12-13T10:52:03;-0.90;1.00
318;DHT22;146;53.448;10.228;2022-12-13T10:54:32;-0.90;1.00
318;DHT22;146;53.448;10.228;2022-12-13T10:57:01;-0.90;1.00
318;DHT22;146;53.448;10.228;2022-12-13T10:59:33;-0.90;1.00
318;DHT22;146;53.448;10.228;2022-12-13T11:02:02;-0.90;1.00
318;DHT22;146;53.448;10.228;2022-12-13T11:04:48;-0.80;1.00
318;DHT22;146;53.448;10.228;2022-12-13T11:07:26;-0.70;1.00
318;DHT22;146;53.448;10.228;2022-12-13T11:09:54;-0.60;1.00
318;DHT22;146;53.448;10.228;2022-12-13T11:12:22;-0.60;1.00
318;DHT22;146;53.448;10.228;2022-12-13T11:15:12;-0.60;1.00
318;DHT22;146;53.448;10.228;2022-12-13T11:17:46;-0.50;1.00
318;DHT22;146;53.448;10.228;2022-12-13T11:20:17;-0.40;1.00
318;DHT22;146;53.448;10.228;2022-12-13T11:22:46;-0.30;1.00
318;DHT22;146;53.448;10.228;2022-12-13T11:25:20;-0.20;1.00
318;DHT22;146;53.448;10.228;2022-12-13T11:27:59;-0.10;1.00
318;DHT22;146;53.448;10.228;2022-12-13T11:30:33;-0.10;1.00
318;DHT22;146;53.448;10.228;2022-12-13T11:33:10;0.00;1.00
318;DHT22;146;53.448;10.228;2022-12-13T11:35:52;0.10;1.00
318;DHT22;146;53.448;10.228;2022-12-13T11:38:31;0.10;1.00
318;DHT22;146;53.448;10.228;2022-12-13T11:41:02;0.10;1.00
318;DHT22;146;53.448;10.228;2022-12-13T11:43:40;0.20;1.00
318;DHT22;146;53.448;10.228;2022-12-13T11:46:13;0.20;1.00
318;DHT22;146;53.448;10.228;2022-12-13T11:48:43;0.30;1.00
318;DHT22;146;53.448;10.228;2022-12-13T11:51:14;0.30;1.00
318;DHT22;146;53.448;10.228;2022-12-13T11:53:53;0.40;1.00
318;DHT22;146;53.448;10.228;2022-12-13T11:56:23;0.30;1.00
318;DHT22;146;53.448;10.228;2022-12-13T11:58:55;0.30;1.00
318;DHT22;146;53.448;10.228;2022-12-13T12:01:30;0.30;1.00
318;DHT22;146;53.448;10.228;2022-12-13T12:04:05;0.40;1.00
318;DHT22;146;53.448;10.228;2022-12-13T12:06:37;0.40;1.00
318;DHT22;146;53.448;10.228;2022-12-13T12:09:11;0.50;1.00
318;DHT22;146;53.448;10.228;2022-12-13T12:11:44;0.60;1.00
318;DHT22;146;53.448;10.228;2022-12-13T12:14:16;0.60;1.00
318;DHT22;146;53.448;10.228;2022-12-13T12:16:50;0.50;1.00
318;DHT22;146;53.448;10.228;2022-12-13T12:19:19;0.50;1.00
318;DHT22;146;53.448;10.228;2022-12-13T12:22:10;0.60;1.00
318;DHT22;146;53.448;10.228;2022-12-13T12:24:51;0.60;1.00
318;DHT22;146;53.448;10.228;2022-12-13T12:27:27;0.60;1.00
318;DHT22;146;53.448;10.228;2022-12-13T12:30:02;0.70;1.00
318;DHT22;146;53.448;10.228;2022-12-13T12:32:33;0.70;1.00
318;DHT22;146;53.448;10.228;2022-12-13T12:35:17;0.60;1.00
318;DHT22;146;53.448;10.228;2022-12-13T12:37:51;0.60;1.00
318;DHT22;146;53.448;10.228;2022-12-13T12:40:42;0.60;1.00
318;DHT22;146;53.448;10.228;2022-12-13T12:43:19;0.60;1.00
318;DHT22;146;53.448;10.228;2022-12-13T12:45:57;0.80;1.00
318;DHT22;146;53.448;10.228;2022-12-13T12:48:41;0.90;1.00
318;DHT22;146;53.448;10.228;2022-12-13T12:51:17;0.80;1.00
318;DHT22;146;53.448;10.228;2022-12-13T12:53:49;0.70;1.00
318;DHT22;146;53.448;10.228;2022-12-13T12:56:29;0.70;1.00
318;DHT22;146;53.448;10.228;2022-12-13T12:59:09;0.70;1.00
318;DHT22;146;53.448;10.228;2022-12-13T13:01:54;0.70;1.00
318;DHT22;146;53.448;10.228;2022-12-13T13:04:27;0.70;1.00
318;DHT22;146;53.448;10.228;2022-12-13T13:06:58;0.70;1.00
318;DHT22;146;53.448;10.228;2022-12-13T13:09:26;0.70;1.00
318;DHT22;146;53.448;10.228;2022-12-13T13:11:55;0.70;1.00
318;DHT22;146;53.448;10.228;2022-12-13T13:14:28;0.60;1.00
318;DHT22;146;53.448;10.228;2022-12-13T13:16:56;0.60;1.00
318;DHT22;146;53.448;10.228;2022-12-13T13:19:40;0.70;1.00
318;DHT22;146;53.448;10.228;2022-12-13T13:22:26;0.70;1.00
318;DHT22;146;53.448;10.228;2022-12-13T13:25:16;0.60;1.00
318;DHT22;146;53.448;10.228;2022-12-13T13:27:46;0.60;1.00
318;DHT22;146;53.448;10.228;2022-12-13T13:30:17;0.70;1.00
318;DHT22;146;53.448;10.228;2022-12-13T13:32:45;0.60;1.00
318;DHT22;146;53.448;10.228;2022-12-13T13:41:40;0.40;1.00
318;DHT22;146;53.448;10.228;2022-12-13T13:44:32;0.40;1.00
318;DHT22;146;53.448;10.228;2022-12-13T13:47:15;0.30;1.00
318;DHT22;146;53.448;10.228;2022-12-13T13:49:49;0.30;1.00
318;DHT22;146;53.448;10.228;2022-12-13T13:52:21;0.30;1.00
318;DHT22;146;53.448;10.228;2022-12-13T13:55:22;0.10;1.00
318;DHT22;146;53.448;10.228;2022-12-13T14:04:17;0.10;1.00
318;DHT22;146;53.448;10.228;2022-12-13T14:09:56;0.20;1.00
318;DHT22;146;53.448;10.228;2022-12-13T14:13:01;0.20;1.00
318;DHT22;146;53.448;10.228;2022-12-13T14:19:02;0.40;1.00
318;DHT22;146;53.448;10.228;2022-12-13T14:22:09;0.40;1.00
318;DHT22;146;53.448;10.228;2022-12-13T14:24:49;0.50;1.00
318;DHT22;146;53.448;10.228;2022-12-13T14:27:36;0.50;1.00
318;DHT22;146;53.448;10.228;2022-12-13T14:30:11;0.50;1.00
318;DHT22;146;53.448;10.228;2022-12-13T14:32:40;0.60;1.00
318;DHT22;146;53.448;10.228;2022-12-13T14:35:20;0.60;1.00
318;DHT22;146;53.448;10.228;2022-12-13T14:37:56;0.60;1.00
318;DHT22;146;53.448;10.228;2022-12-13T14:40:27;0.60;1.00
318;DHT22;146;53.448;10.228;2022-12-13T14:42:55;0.50;1.00
318;DHT22;146;53.448;10.228;2022-12-13T14:45:24;0.60;1.00
318;DHT22;146;53.448;10.228;2022-12-13T14:47:51;0.50;1.00
318;DHT22;146;53.448;10.228;2022-12-13T14:50:19;0.50;1.00
318;DHT22;146;53.448;10.228;2022-12-13T14:52:47;0.40;1.00
318;DHT22;146;53.448;10.228;2022-12-13T14:55:24;0.30;1.00
318;DHT22;146;53.448;10.228;2022-12-13T14:57:52;0.30;1.00
318;DHT22;146;53.448;10.228;2022-12-13T15:00:25;0.10;1.00
318;DHT22;146;53.448;10.228;2022-12-13T15:02:54;0.10;1.00
318;DHT22;146;53.448;10.228;2022-12-13T15:05:26;0.00;1.00
318;DHT22;146;53.448;10.228;2022-12-13T15:07:54;-0.20;1.00
318;DHT22;146;53.448;10.228;2022-12-13T15:10:27;-0.20;1.00
318;DHT22;146;53.448;10.228;2022-12-13T15:12:56;-0.30;1.00
318;DHT22;146;53.448;10.228;2022-12-13T15:15:28;-0.40;1.00
318;DHT22;146;53.448;10.228;2022-12-13T15:18:12;-0.40;1.00
318;DHT22;146;53.448;10.228;2022-12-13T15:20:42;-0.30;1.00
318;DHT22;146;53.448;10.228;2022-12-13T15:23:12;-0.30;1.00
318;DHT22;146;53.448;10.228;2022-12-13T15:25:42;-0.20;1.00
318;DHT22;146;53.448;10.228;2022-12-13T15:28:11;-0.20;1.00
318;DHT22;146;53.448;10.228;2022-12-13T15:30:39;-0.20;1.00
318;DHT22;146;53.448;10.228;2022-12-13T15:33:15;-0.30;1.00
318;DHT22;146;53.448;10.228;2022-12-13T15:35:44;-0.30;1.00
318;DHT22;146;53.448;10.228;2022-12-13T15:38:13;-0.40;1.00
318;DHT22;146;53.448;10.228;2022-12-13T15:40:48;-0.40;1.00
318;DHT22;146;53.448;10.228;2022-12-13T15:43:16;-0.50;1.00
318;DHT22;146;53.448;10.228;2022-12-13T15:45:46;-0.50;1.00
318;DHT22;146;53.448;10.228;2022-12-13T15:48:21;-0.60;1.00
318;DHT22;146;53.448;10.228;2022-12-13T15:51:03;-0.70;1.00
318;DHT22;146;53.448;10.228;2022-12-13T15:53:31;-0.80;1.00
318;DHT22;146;53.448;10.228;2022-12-13T15:56:00;-0.90;1.00
318;DHT22;146;53.448;10.228;2022-12-13T15:58:31;-0.90;1.00
318;DHT22;146;53.448;10.228;2022-12-13T16:00:59;-0.80;1.00
318;DHT22;146;53.448;10.228;2022-12-13T16:03:38;-0.80;1.00
318;DHT22;146;53.448;10.228;2022-12-13T16:06:06;-0.80;1.00
318;DHT22;146;53.448;10.228;2022-12-13T16:08:37;-0.90;1.00
318;DHT22;146;53.448;10.228;2022-12-13T16:11:07;-1.00;1.00
318;DHT22;146;53.448;10.228;2022-12-13T16:13:35;-1.00;1.00
318;DHT22;146;53.448;10.228;2022-12-13T16:16:21;-1.10;1.00
318;DHT22;146;53.448;10.228;2022-12-13T16:18:52;-1.10;1.00
318;DHT22;146;53.448;10.228;2022-12-13T16:21:19;-1.20;1.00
318;DHT22;146;53.448;10.228;2022-12-13T16:23:46;-1.20;1.00
318;DHT22;146;53.448;10.228;2022-12-13T16:26:20;-1.20;1.00
318;DHT22;146;53.448;10.228;2022-12-13T16:28:47;-1.20;1.00
318;DHT22;146;53.448;10.228;2022-12-13T16:31:16;-1.20;1.00
318;DHT22;146;53.448;10.228;2022-12-13T16:33:43;-1.20;1.00
318;DHT22;146;53.448;10.228;2022-12-13T16:36:16;-1.20;1.00
318;DHT22;146;53.448;10.228;2022-12-13T16:38:43;-1.20;1.00
318;DHT22;146;53.448;10.228;2022-12-13T16:41:11;-1.20;1.00
318;DHT22;146;53.448;10.228;2022-12-13T16:43:48;-1.10;1.00
318;DHT22;146;53.448;10.228;2022-12-13T16:46:17;-1.10;1.00
318;DHT22;146;53.448;10.228;2022-12-13T16:48:44;-1.00;1.00
318;DHT22;146;53.448;10.228;2022-12-13T16:51:11;-0.90;1.00
318;DHT22;146;53.448;10.228;2022-12-13T16:53:37;-0.90;1.00
318;DHT22;146;53.448;10.228;2022-12-13T16:56:05;-0.90;1.00
318;DHT22;146;53.448;10.228;2022-12-13T16:58:35;-0.90;1.00
318;DHT22;146;53.448;10.228;2022-12-13T17:01:08;-0.80;1.00
318;DHT22;146;53.448;10.228;2022-12-13T17:03:35;-0.80;1.00
318;DHT22;146;53.448;10.228;2022-12-13T17:06:02;-0.80;1.00
318;DHT22;146;53.448;10.228;2022-12-13T17:08:29;-0.80;1.00
318;DHT22;146;53.448;10.228;2022-12-13T17:10:57;-0.80;1.00
318;DHT22;146;53.448;10.228;2022-12-13T17:13:24;-0.70;1.00
318;DHT22;146;53.448;10.228;2022-12-13T17:15:51;-0.70;1.00
318;DHT22;146;53.448;10.228;2022-12-13T17:18:19;-0.60;1.00
318;DHT22;146;53.448;10.228;2022-12-13T17:20:47;-0.60;1.00
318;DHT22;146;53.448;10.228;2022-12-13T17:23:15;-0.60;1.00
318;DHT22;146;53.448;10.228;2022-12-13T17:25:42;-0.60;1.00
318;DHT22;146;53.448;10.228;2022-12-13T17:28:09;-0.50;1.00
318;DHT22;146;53.448;10.228;2022-12-13T17:30:36;-0.50;1.00
318;DHT22;146;53.448;10.228;2022-12-13T17:33:04;-0.50;1.00
318;DHT22;146;53.448;10.228;2022-12-13T17:35:37;-0.50;1.00
318;DHT22;146;53.448;10.228;2022-12-13T17:38:04;-0.50;1.00
318;DHT22;146;53.448;10.228;2022-12-13T17:40:32;-0.50;1.00
318;DHT22;146;53.448;10.228;2022-12-13T17:42:58;-0.50;1.00
318;DHT22;146;53.448;10.228;2022-12-13T17:45:25;-0.60;1.00
318;DHT22;146;53.448;10.228;2022-12-13T17:47:52;-0.70;1.00
318;DHT22;146;53.448;10.228;2022-12-13T17:50:19;-0.70;1.00
318;DHT22;146;53.448;10.228;2022-12-13T17:52:48;-0.70;1.00
318;DHT22;146;53.448;10.228;2022-12-13T17:55:15;-0.80;1.00
318;DHT22;146;53.448;10.228;2022-12-13T17:57:41;-0.80;1.00
318;DHT22;146;53.448;10.228;2022-12-13T18:00:10;-0.90;1.00
318;DHT22;146;53.448;10.228;2022-12-13T18:02:38;-0.90;1.00
318;DHT22;146;53.448;10.228;2022-12-13T18:05:05;-1.00;1.00
318;DHT22;146;53.448;10.228;2022-12-13T18:07:32;-1.10;1.00
318;DHT22;146;53.448;10.228;2022-12-13T18:10:00;-1.20;1.00
318;DHT22;146;53.448;10.228;2022-12-13T18:12:27;-1.30;1.00
318;DHT22;146;53.448;10.228;2022-12-13T18:14:57;-1.40;1.00
318;DHT22;146;53.448;10.228;2022-12-13T18:17:24;-1.40;1.00
318;DHT22;146;53.448;10.228;2022-12-13T18:19:51;-1.40;1.00
318;DHT22;146;53.448;10.228;2022-12-13T18:22:18;-1.50;1.00
318;DHT22;146;53.448;10.228;2022-12-13T18:24:45;-1.50;1.00
318;DHT22;146;53.448;10.228;2022-12-13T18:27:13;-1.70;1.00
318;DHT22;146;53.448;10.228;2022-12-13T18:29:40;-1.70;1.00
318;DHT22;146;53.448;10.228;2022-12-13T18:32:07;-1.90;1.00
318;DHT22;146;53.448;10.228;2022-12-13T18:38:16;-2.00;1.00
318;DHT22;146;53.448;10.228;2022-12-13T18:40:43;-2.00;1.00
318;DHT22;146;53.448;10.228;2022-12-13T18:43:17;-2.00;1.00